Terminal Aerodrome Forecast
Issued by NWS Missoula, MT

Home | Current Version | Previous Version | Text Only | Print | Product List | Glossary On
Versions: 1 2 3 4 5 6 7 8 9 10 11 12
000
FTUS45 KMSO 191700
TAFBTM
TAF
KBTM 191720Z 1918/2018 00000KT P6SM SKC
     FM191900 24010G20KT P6SM SCT090
     FM200200 31007KT P6SM SCT090=

USA.gov is the U.S. government's official web portal to all federal, state and local government web resources and services.